Αναφορές Αεροδρομίων

 

KSJC - San Jose, California, USA
Distance from station: ΒΑ 14km
Ενημερώθηκε: 16/06/2024 10:53
Αίθριος
Αίθριος
 Ανεμος από ΒΒΔ
Ανεμος: ΒΒΔ 7 km/h
Θερμοκρασία: 15°C
Σημείο Δρόσου: 8°C
Υγρασία: 63%
Βαρόμετρο: 1013.2 hPa
Clouds: Αίθριος
Visibility: 16 km
2024/06/16 07:53 KSJC 160753Z AUTO 33004KT 10SM CLR 15/08 A2992 RMK AO2 SLP132 T01500083 402780133
KNUQ - Moffett Nas/Mtn, California, USA
Distance from station: Β 14km
Ενημερώθηκε: 16/06/2024 11:15
Haze, Αίθριος
Haze, Αίθριος
 Ανεμος από ΒΒΑ
Ανεμος: ΒΒΑ 9 km/h
Θερμοκρασία: 14°C
Σημείο Δρόσου: 10°C
Υγρασία: 77%
Βαρόμετρο: 1013.2 hPa
Περίληψη: Haze
Clouds: Αίθριος
Visibility: 10 km
2024/06/16 08:15 KNUQ 160815Z AUTO 02005KT 6SM HZ CLR 14/10 A2992 RMK AO2
 
KPAO - Palo Alto, California, USA
Distance from station: ΒΒΔ 23km
Ενημερώθηκε: 16/06/2024 06:47
NOT Current
Αίθριος
Αίθριος
 Ανεμος από ΒΒΔ
Ανεμος: ΒΒΔ 17 km/h
Θερμοκρασία: 16°C
Σημείο Δρόσου: 7°C
Υγρασία: 55%
Βαρόμετρο: 1013.5 hPa
Clouds: Αίθριος
Visibility: 16 km
2024/06/16 03:47 KPAO 160347Z 33009KT 10SM SKC 16/07 A2993 RMK LAST
KRHV - San Jose/Reid, California, USA
Distance from station: ΑΒΑ 19km
Ενημερώθηκε: 16/06/2024 07:55
NOT Current
Αίθριος
Αίθριος
 Ανεμος από ΒΒΔ
Ανεμος: ΒΒΔ 9 km/h
Θερμοκρασία: 17°C
Σημείο Δρόσου: 7°C
Υγρασία: 52%
Βαρόμετρο: 1013.9 hPa
Clouds: Αίθριος
Visibility: 16 km
2024/06/16 04:55 KRHV 160455Z 33005KT 10SM SKC 17/07 A2994 RMK LAST
 
KOAK - Oakland, California, USA
Distance from station: ΒΒΔ 50km
Ενημερώθηκε: 16/06/2024 10:53
Αίθριος
Αίθριος
 Ανεμος από ΔΝΔ
Ανεμος: ΔΝΔ 11 km/h
Θερμοκρασία: 15°C
Σημείο Δρόσου: 11°C
Υγρασία: 77%
Βαρόμετρο: 1013.5 hPa
Clouds: Αίθριος
Visibility: 16 km
2024/06/16 07:53 KOAK 160753Z 25006KT 10SM CLR 15/11 A2993 RMK AO2 SLP133 T01500106 402390133
KSQL - San Carlos Airpo, California, USA
Distance from station: ΒΔ 34km
Ενημερώθηκε: 16/06/2024 11:15
Αίθριος
Αίθριος
 Ανεμος από Δ
Ανεμος: Δ 7 km/h
Θερμοκρασία: 14°C
Σημείο Δρόσου: 7°C
Υγρασία: 63%
Βαρόμετρο: 1013.9 hPa
Clouds: Αίθριος
Visibility: 16 km
2024/06/16 08:15 KSQL 160815Z AUTO 27004KT 10SM CLR 14/07 A2994 RMK AO2
 
KSFO - San Francisco, California, USA
Distance from station: ΒΔ 49km
Ενημερώθηκε: 16/06/2024 10:56
Αίθριος
Αίθριος
 Ανεμος από Δ
Ανεμος: Δ 20 km/h
Θερμοκρασία: 12°C
Σημείο Δρόσου: 8°C
Υγρασία: 77%
Βαρόμετρο: 1013.5 hPa
Clouds: Αίθριος
Visibility: 16 km
2024/06/16 07:56 KSFO 160756Z 28011KT 10SM CLR 12/08 A2993 RMK AO2 SLP136 T01170078 402060111
KE16 - San Martin, California, USA
Distance from station: ΑΝΑ 43km
Ενημερώθηκε: 16/06/2024 11:15
Αίθριος
Αίθριος
 Ανεμος από Ν
Ανεμος: Ν 7 km/h
Θερμοκρασία: 12°C
Σημείο Δρόσου: 8°C
Υγρασία: 77%
Βαρόμετρο: 1013.9 hPa
Clouds: Αίθριος
Visibility: 13 km
2024/06/16 08:15 KE16 160815Z AUTO 17004KT 8SM CLR 12/08 A2994 RMK AO2 PWINO PNO
 
KWVI - Watsonville, California, USA
Distance from station: ΝΝΑ 44km
Ενημερώθηκε: 16/06/2024 10:53
Αίθριος
Αίθριος
 Ανεμος από Α
Ανεμος: Α 6 km/h
Θερμοκρασία: 11°C
Σημείο Δρόσου: 9°C
Υγρασία: 88%
Βαρόμετρο: 1014.2 hPa
Clouds: Αίθριος
Visibility: 16 km
2024/06/16 07:53 KWVI 160753Z AUTO 08003KT 10SM CLR 11/09 A2995 RMK AO2 SLP141 T01060089 402390083
KHAF - Half Moon Bay, California, USA
Distance from station: ΔΒΔ 50km
Ενημερώθηκε: 16/06/2024 11:15
Mist, Αίθριος
Mist, Αίθριος
 Ανεμος από ΒΒΔ
Ανεμος: ΒΒΔ 7 km/h
Θερμοκρασία: 11°C
Σημείο Δρόσου: 10°C
Υγρασία: 94%
Βαρόμετρο: 1014.6 hPa
Περίληψη: Mist
Clouds: Αίθριος
Visibility: 6 km
2024/06/16 08:15 KHAF 160815Z AUTO 34004KT 4SM BR CLR 11/10 A2996 RMK AO2
 
KHWD - Hayward, California, USA
Distance from station: Β 44km
Ενημερώθηκε: 16/06/2024 10:54
Αίθριος
Αίθριος
 Ανεμος από Δ
Ανεμος: Δ 15 km/h
Θερμοκρασία: 14°C
Σημείο Δρόσου: 9°C
Υγρασία: 72%
Βαρόμετρο: 1013.5 hPa
Clouds: Αίθριος
Visibility: 16 km
2024/06/16 07:54 KHWD 160754Z AUTO 27008KT 10SM CLR 14/09 A2993 RMK AO2 SLP143 T01440089 402390133
KLVK - Livermore, California, USA
Distance from station: ΒΒΑ 51km
Ενημερώθηκε: 16/06/2024 10:53
Αίθριος
Αίθριος
 Ανεμος από Δ
Ανεμος: Δ 11 km/h
Θερμοκρασία: 13°C
Σημείο Δρόσου: 8°C
Υγρασία: 72%
Βαρόμετρο: 1012.9 hPa
Clouds: Αίθριος
Visibility: 16 km
2024/06/16 07:53 KLVK 160753Z AUTO 28006KT 10SM CLR 13/08 A2991 RMK AO2 SLP124 T01330083 402890111